createdAt,value
2016-11-06T11:04:51.625Z,18.84
2016-11-06T11:05:17.217Z,18.84
2016-11-06T11:05:42.786Z,18.92
2016-11-06T11:06:08.345Z,18.97
2016-11-06T11:06:33.917Z,18.9
2016-11-06T11:06:59.570Z,18.92
2016-11-06T11:07:25.126Z,18.97
2016-11-06T11:07:50.685Z,18.91
2016-11-06T11:08:16.230Z,19.02
2016-11-06T11:08:41.757Z,18.99
2016-11-06T11:09:07.353Z,18.95
2016-11-06T11:09:33.017Z,18.99
2016-11-06T11:09:58.623Z,19.05
2016-11-06T11:10:24.263Z,19.06
2016-11-06T11:10:49.848Z,19.1
2016-11-06T11:11:15.358Z,19.11
2016-11-06T11:11:40.918Z,19.14
2016-11-06T11:12:06.459Z,19.15
2016-11-06T11:12:32.061Z,19.13
2016-11-06T11:12:57.612Z,19.2
2016-11-06T11:13:23.185Z,19.21
2016-11-06T11:13:48.833Z,19.15
2016-11-06T11:14:14.398Z,19.2
2016-11-06T11:14:39.969Z,19.17
2016-11-06T11:15:05.640Z,19.24
2016-11-06T11:15:31.296Z,19.24
2016-11-06T11:15:56.866Z,19.24
2016-11-06T11:16:22.498Z,19.25
2016-11-06T11:16:48.065Z,19.35
2016-11-06T11:17:13.659Z,19.31
2016-11-06T11:17:39.233Z,19.29
2016-11-06T11:18:04.900Z,19.36
2016-11-06T11:18:30.470Z,19.36
2016-11-06T11:18:56.021Z,19.36
2016-11-06T11:19:21.578Z,19.29
2016-11-06T11:19:47.166Z,19.39
2016-11-06T11:20:12.758Z,19.33
2016-11-06T11:20:38.351Z,19.28
2016-11-06T11:21:03.960Z,19.32
2016-11-06T11:21:29.536Z,19.31
2016-11-06T11:21:55.117Z,19.29
2016-11-06T11:22:20.691Z,19.33
2016-11-06T11:22:46.325Z,19.25
2016-11-06T11:23:11.941Z,19.23
2016-11-06T11:23:37.523Z,19.2
2016-11-06T11:24:03.121Z,19.24
2016-11-06T11:24:28.679Z,19.24
2016-11-06T11:24:54.352Z,19.24
2016-11-06T11:25:19.939Z,19.33
2016-11-06T11:25:45.519Z,19.28
2016-11-06T11:26:11.111Z,19.29
2016-11-06T11:26:36.664Z,19.23
2016-11-06T11:27:02.298Z,19.23
2016-11-06T11:27:27.941Z,19.25
2016-11-06T11:27:53.525Z,19.23
2016-11-06T11:28:19.085Z,19.21
2016-11-06T11:28:44.639Z,19.24
2016-11-06T11:29:10.226Z,19.23
2016-11-06T11:29:35.783Z,19.23
2016-11-06T11:30:01.340Z,19.18
2016-11-06T11:30:26.921Z,19.18
2016-11-06T11:30:52.493Z,19.1
2016-11-06T11:31:18.100Z,19.1
2016-11-06T11:31:43.660Z,19.15
2016-11-06T11:32:09.253Z,19.14
2016-11-06T11:32:34.898Z,19.13
2016-11-06T11:33:00.477Z,19.1
2016-11-06T11:33:26.058Z,19.1
2016-11-06T11:33:51.725Z,19.14
2016-11-06T11:34:17.305Z,19.08
2016-11-06T11:34:42.852Z,19.06
2016-11-06T11:35:08.431Z,19.05
2016-11-06T11:35:33.972Z,19.06
2016-11-06T11:35:59.537Z,19.08
2016-11-06T11:36:25.109Z,19.02
2016-11-06T11:36:50.671Z,19.05
2016-11-06T11:37:16.284Z,19.08
2016-11-06T11:37:41.849Z,19.02
2016-11-06T11:38:07.426Z,19.06
2016-11-06T11:38:33.010Z,18.98
2016-11-06T11:38:58.570Z,19.1
2016-11-06T11:39:24.202Z,19.08
2016-11-06T11:39:49.820Z,19.14
2016-11-06T11:40:15.372Z,19.02
2016-11-06T11:40:41.018Z,19.02
2016-11-06T11:41:06.742Z,19.02
2016-11-06T11:41:32.271Z,19.14
2016-11-06T11:41:57.848Z,19.06
2016-11-06T11:42:23.423Z,19.06
2016-11-06T11:42:48.979Z,19.08
2016-11-06T11:43:14.547Z,19.13
2016-11-06T11:43:40.174Z,19.13
2016-11-06T11:44:05.732Z,19.13
2016-11-06T11:44:31.311Z,19.1
2016-11-06T11:44:56.890Z,19.06
2016-11-06T11:45:22.454Z,19.14
2016-11-06T11:45:48.053Z,19.11
2016-11-06T11:46:13.615Z,19.08
2016-11-06T11:46:39.204Z,19.14
2016-11-06T11:47:04.769Z,19.11
2016-11-06T11:47:30.334Z,19.14
2016-11-06T11:47:55.903Z,19.06
2016-11-06T11:48:21.494Z,19.13
2016-11-06T11:48:47.060Z,19.14
2016-11-06T11:49:12.657Z,19.11
2016-11-06T11:49:38.206Z,19.08
2016-11-06T11:50:03.748Z,19.13
2016-11-06T11:50:29.335Z,19.2
2016-11-06T11:50:54.887Z,19.1
2016-11-06T11:51:20.515Z,19.15
2016-11-06T11:51:46.072Z,19.06
2016-11-06T11:52:11.674Z,19.13
2016-11-06T11:52:37.220Z,19.14
2016-11-06T11:53:02.802Z,19.1
2016-11-06T11:53:28.383Z,19.08
2016-11-06T11:53:53.960Z,19.14
2016-11-06T11:54:19.602Z,19.08
2016-11-06T11:54:45.165Z,19.1
2016-11-06T11:55:10.749Z,19.11
2016-11-06T11:55:36.328Z,19.11
2016-11-06T11:56:02.023Z,18.99
2016-11-06T11:56:27.574Z,19.05
2016-11-06T11:56:53.159Z,19.05
2016-11-06T11:57:18.707Z,19.1
2016-11-06T11:57:44.442Z,18.95
2016-11-06T11:58:10.008Z,18.92
2016-11-06T11:58:35.553Z,18.97
2016-11-06T11:59:01.152Z,18.99
2016-11-06T11:59:26.682Z,18.94
2016-11-06T11:59:52.242Z,18.91
2016-11-06T12:00:17.778Z,18.92
2016-11-06T12:00:43.349Z,18.95
2016-11-06T12:01:08.892Z,18.92
2016-11-06T12:01:34.561Z,18.9
2016-11-06T12:02:00.109Z,18.94
2016-11-06T12:02:25.677Z,18.9
2016-11-06T12:02:51.314Z,18.86
2016-11-06T12:03:16.874Z,18.86
2016-11-06T12:03:42.461Z,18.82
2016-11-06T12:04:08.055Z,18.82
2016-11-06T12:04:33.621Z,18.84
2016-11-06T12:04:59.194Z,18.77
2016-11-06T12:05:24.765Z,18.9
2016-11-06T12:05:50.327Z,18.83
2016-11-06T12:06:15.890Z,18.77
2016-11-06T12:06:41.514Z,18.82
2016-11-06T12:07:07.087Z,18.76
2016-11-06T12:07:32.662Z,18.77
2016-11-06T12:07:58.304Z,18.76
2016-11-06T12:08:23.891Z,18.8
2016-11-06T12:08:49.564Z,18.77
2016-11-06T12:09:15.156Z,18.68
2016-11-06T12:09:40.714Z,18.74
2016-11-06T12:10:06.286Z,18.73
2016-11-06T12:10:31.883Z,18.79
2016-11-06T12:11:19.887Z,18.73
2016-11-06T12:11:45.438Z,18.79
2016-11-06T12:12:10.981Z,18.76
2016-11-06T12:12:36.568Z,18.7
2016-11-06T12:13:02.194Z,18.68
2016-11-06T12:13:27.753Z,18.72
2016-11-06T12:13:53.317Z,18.65
2016-11-06T12:14:18.938Z,18.64
2016-11-06T12:14:44.579Z,18.65
2016-11-06T12:15:10.161Z,18.7
2016-11-06T12:15:35.709Z,18.65
2016-11-06T12:16:01.356Z,18.7
2016-11-06T12:16:26.904Z,18.72
2016-11-06T12:17:35.283Z,18.67
2016-11-06T12:18:00.879Z,18.62
2016-11-06T12:18:26.444Z,18.7
2016-11-06T12:18:52.020Z,18.64
2016-11-06T12:19:17.572Z,18.72
2016-11-06T12:19:43.128Z,18.61
2016-11-06T12:20:08.692Z,18.65
2016-11-06T12:20:34.269Z,18.62
2016-11-06T12:20:59.834Z,18.65
2016-11-06T12:21:25.397Z,18.68
2016-11-06T12:21:51.030Z,18.59
2016-11-06T12:22:16.589Z,18.61
2016-11-06T12:22:42.197Z,18.67
2016-11-06T12:23:07.762Z,18.59
2016-11-06T12:23:33.419Z,18.62
2016-11-06T12:23:58.946Z,18.59
2016-11-06T12:24:24.557Z,18.73
2016-11-06T12:24:50.203Z,18.64
2016-11-06T12:25:15.782Z,18.64
2016-11-06T12:25:41.320Z,18.64
2016-11-06T12:26:06.879Z,18.58
2016-11-06T12:26:32.448Z,18.64
2016-11-06T12:26:58.031Z,18.74
2016-11-06T12:27:23.581Z,18.72
2016-11-06T12:27:49.175Z,18.62
2016-11-06T12:28:14.732Z,18.62
2016-11-06T12:28:40.404Z,18.62
2016-11-06T12:29:05.963Z,18.62
2016-11-06T12:29:31.522Z,18.59
2016-11-06T12:29:57.118Z,18.57
2016-11-06T12:30:22.804Z,18.55
2016-11-06T12:30:48.352Z,18.58
2016-11-06T12:31:13.923Z,18.61
2016-11-06T12:31:39.564Z,18.67
2016-11-06T12:32:05.117Z,18.61
2016-11-06T12:32:30.693Z,18.65
2016-11-06T12:32:56.417Z,18.55
2016-11-06T12:33:21.991Z,18.55
2016-11-06T12:33:47.560Z,18.57
2016-11-06T12:34:13.111Z,18.58
2016-11-06T12:34:38.690Z,18.62
2016-11-06T12:35:04.268Z,18.64
2016-11-06T12:35:29.831Z,18.58
2016-11-06T12:36:27.933Z,18.58
2016-11-06T12:36:53.517Z,18.59
2016-11-06T12:37:19.076Z,18.59
2016-11-06T12:37:44.610Z,18.61
2016-11-06T12:38:10.165Z,18.61
2016-11-06T12:38:35.796Z,18.58
2016-11-06T12:39:01.320Z,18.59
2016-11-06T12:39:26.889Z,18.55
2016-11-06T12:39:52.425Z,18.58
2016-11-06T12:40:17.961Z,18.62
2016-11-06T12:40:43.522Z,18.57
2016-11-06T12:41:09.193Z,18.5
2016-11-06T12:41:34.748Z,18.54
2016-11-06T12:42:00.357Z,18.61
2016-11-06T12:42:25.907Z,18.58
2016-11-06T12:42:51.485Z,18.59
2016-11-06T12:43:17.040Z,18.57
2016-11-06T12:43:42.596Z,18.61
2016-11-06T12:44:08.173Z,18.52
2016-11-06T12:44:33.759Z,18.54
2016-11-06T12:44:59.395Z,18.58
2016-11-06T12:45:24.972Z,18.55
2016-11-06T12:45:50.531Z,18.52
2016-11-06T12:46:16.108Z,18.57
2016-11-06T12:46:41.660Z,18.54
2016-11-06T12:47:07.215Z,18.44
2016-11-06T12:47:32.820Z,18.58
2016-11-06T12:47:58.353Z,18.54
2016-11-06T12:48:23.930Z,18.58
2016-11-06T12:48:49.507Z,18.47
2016-11-06T12:49:15.084Z,18.47
2016-11-06T12:49:40.749Z,18.5
2016-11-06T12:50:06.319Z,18.49
2016-11-06T12:50:31.987Z,18.49
2016-11-06T12:50:57.565Z,18.55
2016-11-06T12:51:23.132Z,18.47
2016-11-06T12:51:48.720Z,18.49
2016-11-06T12:52:14.278Z,18.49
2016-11-06T12:52:39.856Z,18.46
2016-11-06T12:53:05.433Z,18.43
2016-11-06T12:53:30.988Z,18.44
2016-11-06T12:53:56.550Z,18.46
2016-11-06T12:54:22.117Z,18.46
2016-11-06T12:54:47.770Z,18.43
2016-11-06T12:55:13.329Z,18.49
2016-11-06T12:55:38.891Z,18.42
2016-11-06T12:56:04.457Z,18.43
2016-11-06T12:56:30.037Z,18.44
2016-11-06T12:56:55.607Z,18.43
2016-11-06T12:57:21.175Z,18.43
2016-11-06T12:57:46.745Z,18.49
2016-11-06T12:58:12.317Z,18.43
2016-11-06T12:58:37.948Z,18.4
2016-11-06T12:59:03.491Z,18.49
2016-11-06T12:59:29.066Z,18.44
2016-11-06T12:59:54.661Z,18.43
2016-11-06T13:00:20.306Z,18.43
2016-11-06T13:00:45.873Z,18.44
2016-11-06T13:01:11.423Z,18.43
2016-11-06T13:01:37.057Z,18.42
2016-11-06T13:02:02.623Z,18.46
2016-11-06T13:02:28.181Z,18.42
2016-11-06T13:02:53.891Z,18.47
2016-11-06T13:03:19.442Z,18.42
2016-11-06T13:03:45.005Z,18.42
2016-11-06T13:04:10.689Z,18.43
2016-11-06T13:04:36.300Z,18.43
2016-11-06T13:05:01.864Z,18.46
2016-11-06T13:05:27.463Z,18.43
2016-11-06T13:05:54.003Z,18.5
2016-11-06T13:06:19.571Z,18.44
2016-11-06T13:07:17.816Z,18.42
2016-11-06T13:07:43.381Z,18.44
2016-11-06T13:08:08.968Z,18.43
2016-11-06T13:08:34.514Z,18.44
2016-11-06T13:09:00.156Z,18.43
2016-11-06T13:09:25.726Z,18.43
2016-11-06T13:09:51.313Z,18.39
2016-11-06T13:10:16.879Z,18.43
2016-11-06T13:10:42.467Z,18.44
2016-11-06T13:11:07.990Z,18.43
2016-11-06T13:11:33.586Z,18.43
2016-11-06T13:11:59.134Z,18.4
2016-11-06T13:12:24.717Z,18.39
2016-11-06T13:12:50.315Z,18.43
2016-11-06T13:13:15.874Z,18.46
2016-11-06T13:13:41.438Z,18.39
2016-11-06T13:14:07.077Z,18.43
2016-11-06T13:14:32.673Z,18.39
2016-11-06T13:14:58.241Z,18.44
2016-11-06T13:15:23.915Z,18.42
2016-11-06T13:15:49.518Z,18.43
2016-11-06T13:16:15.076Z,18.39
2016-11-06T13:16:40.761Z,18.43
2016-11-06T13:17:06.323Z,18.39
2016-11-06T13:17:31.886Z,18.47
2016-11-06T13:17:57.428Z,18.43
2016-11-06T13:18:23.024Z,18.4
2016-11-06T13:18:48.600Z,18.37
2016-11-06T13:19:14.173Z,18.43
2016-11-06T13:19:39.699Z,18.46
2016-11-06T13:20:05.327Z,18.34
2016-11-06T13:20:30.932Z,18.39
2016-11-06T13:20:56.509Z,18.34
2016-11-06T13:21:22.063Z,18.4
2016-11-06T13:21:47.639Z,18.42
2016-11-06T13:22:13.265Z,18.4
2016-11-06T13:22:38.814Z,18.4
2016-11-06T13:23:04.385Z,18.34
2016-11-06T13:23:30.097Z,18.29
2016-11-06T13:23:55.670Z,18.34
2016-11-06T13:24:21.212Z,18.39
2016-11-06T13:24:46.777Z,18.34
2016-11-06T13:25:12.504Z,18.42
2016-11-06T13:25:38.067Z,18.31
2016-11-06T13:26:03.639Z,18.33
2016-11-06T13:26:29.239Z,18.37
2016-11-06T13:26:54.838Z,18.33
2016-11-06T13:28:03.230Z,18.37
2016-11-06T13:28:28.739Z,18.39
2016-11-06T13:28:54.356Z,18.36
2016-11-06T13:29:19.929Z,18.31
2016-11-06T13:29:45.575Z,18.31
2016-11-06T13:30:11.165Z,18.4
2016-11-06T13:30:36.748Z,18.29
2016-11-06T13:31:02.379Z,18.31
2016-11-06T13:31:27.938Z,18.29
2016-11-06T13:31:53.516Z,18.37
2016-11-06T13:32:19.078Z,18.34
2016-11-06T13:32:44.624Z,18.4
2016-11-06T13:33:10.177Z,18.31
2016-11-06T13:33:35.759Z,18.37
2016-11-06T13:34:01.371Z,18.37
2016-11-06T13:34:26.929Z,18.33
2016-11-06T13:34:52.513Z,18.29
2016-11-06T13:35:18.085Z,18.36
2016-11-06T13:35:43.743Z,18.27
2016-11-06T13:36:09.315Z,18.36
2016-11-06T13:36:34.915Z,18.33
2016-11-06T13:37:00.499Z,18.31
2016-11-06T13:37:26.084Z,18.34
2016-11-06T13:37:51.723Z,18.34
2016-11-06T13:38:17.340Z,18.31
2016-11-06T13:38:42.898Z,18.28
2016-11-06T13:39:08.489Z,18.25
2016-11-06T13:39:34.187Z,18.33
2016-11-06T13:39:59.775Z,18.33
2016-11-06T13:40:25.343Z,18.31
2016-11-06T13:40:50.921Z,18.34
2016-11-06T13:41:16.554Z,18.31
2016-11-06T13:41:42.176Z,18.25
2016-11-06T13:42:07.760Z,18.34
2016-11-06T13:42:33.345Z,18.37
2016-11-06T13:42:58.916Z,18.31
2016-11-06T13:43:24.521Z,18.34
2016-11-06T13:43:50.105Z,18.27
2016-11-06T13:44:15.672Z,18.27
2016-11-06T13:44:41.239Z,18.27
2016-11-06T13:45:06.827Z,18.34
2016-11-06T13:45:32.395Z,18.37
2016-11-06T13:45:57.937Z,18.25
2016-11-06T13:46:23.507Z,18.31
2016-11-06T13:46:49.079Z,18.31
2016-11-06T13:47:14.645Z,18.25
2016-11-06T13:47:40.213Z,18.28
2016-11-06T13:48:05.809Z,18.28
2016-11-06T13:48:31.396Z,18.28
2016-11-06T13:48:57.097Z,18.36
2016-11-06T13:49:22.649Z,18.27
2016-11-06T13:49:48.219Z,18.29
2016-11-06T13:50:13.805Z,18.25
2016-11-06T13:50:39.409Z,18.25
2016-11-06T13:51:04.947Z,18.27
2016-11-06T13:51:30.550Z,18.28
2016-11-06T13:51:56.089Z,18.33
2016-11-06T13:52:21.652Z,18.24
2016-11-06T13:52:47.318Z,18.28
2016-11-06T13:53:12.873Z,18.28
2016-11-06T13:53:38.436Z,18.31
2016-11-06T13:54:04.128Z,18.31
2016-11-06T13:54:29.712Z,18.24
2016-11-06T13:54:55.280Z,18.36
2016-11-06T13:55:20.834Z,18.28
2016-11-06T13:55:46.526Z,18.29
2016-11-06T13:56:12.081Z,18.25
2016-11-06T13:56:37.765Z,18.27
2016-11-06T13:57:03.321Z,18.29
2016-11-06T13:57:28.887Z,18.28
2016-11-06T13:57:54.465Z,18.29
2016-11-06T13:58:20.078Z,18.27
2016-11-06T13:58:45.667Z,18.27
2016-11-06T13:59:11.251Z,18.34
2016-11-06T13:59:36.948Z,18.28
2016-11-06T14:00:02.489Z,18.21
2016-11-06T14:00:28.114Z,18.28
2016-11-06T14:00:53.731Z,18.34
2016-11-06T14:01:19.339Z,18.28
2016-11-06T14:01:44.949Z,18.27
2016-11-06T14:02:10.529Z,18.27
2016-11-06T14:02:36.106Z,18.22
2016-11-06T14:03:01.839Z,18.29
2016-11-06T14:03:27.412Z,18.27
2016-11-06T14:03:52.964Z,18.29
2016-11-06T14:04:18.536Z,18.19
2016-11-06T14:04:44.095Z,18.19
2016-11-06T14:05:09.652Z,18.18
2016-11-06T14:05:35.207Z,18.24
2016-11-06T14:06:00.850Z,18.15
2016-11-06T14:06:26.410Z,18.22
2016-11-06T14:06:52.010Z,18.21
2016-11-06T14:07:17.572Z,18.24
2016-11-06T14:07:43.157Z,18.18
2016-11-06T14:08:08.775Z,18.21
2016-11-06T14:08:34.332Z,18.19
2016-11-06T14:09:00.017Z,18.13
2016-11-06T14:09:25.594Z,18.21
2016-11-06T14:09:51.178Z,18.1
2016-11-06T14:10:16.729Z,18.22
2016-11-06T14:10:42.395Z,18.21
2016-11-06T14:11:07.953Z,18.19
2016-11-06T14:11:33.554Z,18.17
2016-11-06T14:11:59.166Z,18.18
2016-11-06T14:12:24.763Z,18.24
2016-11-06T14:12:50.333Z,18.25
2016-11-06T14:13:15.975Z,18.17
2016-11-06T14:13:41.549Z,18.19
2016-11-06T14:14:07.114Z,18.19
2016-11-06T14:14:32.776Z,18.17
2016-11-06T14:14:58.362Z,18.21
2016-11-06T14:15:23.927Z,18.22
2016-11-06T14:15:49.485Z,18.15
2016-11-06T14:16:15.063Z,18.19
2016-11-06T14:16:40.625Z,18.15
2016-11-06T14:17:06.233Z,18.21
2016-11-06T14:17:31.787Z,18.18
2016-11-06T14:17:57.389Z,18.17
2016-11-06T14:18:22.934Z,18.19
2016-11-06T14:18:48.564Z,18.19
2016-11-06T14:19:14.129Z,18.15
2016-11-06T14:19:39.762Z,18.09
2016-11-06T14:20:05.373Z,18.18
2016-11-06T14:20:30.923Z,18.09
2016-11-06T14:20:56.532Z,18.1
2016-11-06T14:21:22.114Z,18.21
2016-11-06T14:21:47.688Z,18.15
2016-11-06T14:22:13.276Z,18.15
2016-11-06T14:22:38.822Z,18.17
2016-11-06T14:23:04.485Z,18.1
2016-11-06T14:23:30.040Z,18.17
2016-11-06T14:23:55.655Z,18.18
2016-11-06T14:24:21.222Z,18.18
2016-11-06T14:24:46.778Z,18.17
2016-11-06T14:25:12.376Z,18.19
2016-11-06T14:25:37.957Z,18.12
2016-11-06T14:26:03.517Z,18.22
2016-11-06T14:26:29.086Z,18.24
2016-11-06T14:26:54.652Z,18.1
2016-11-06T14:27:20.223Z,18.17
2016-11-06T14:27:45.811Z,18.25
2016-11-06T14:28:11.556Z,18.17
2016-11-06T14:28:37.127Z,18.17
2016-11-06T14:29:02.760Z,18.18
2016-11-06T14:29:28.376Z,18.19
2016-11-06T14:29:53.938Z,18.22
2016-11-06T14:30:19.570Z,18.22
2016-11-06T14:30:45.126Z,18.17
2016-11-06T14:31:10.680Z,18.18
2016-11-06T14:31:36.239Z,18.13
2016-11-06T14:32:01.872Z,18.19
2016-11-06T14:32:49.912Z,18.18
2016-11-06T14:33:15.422Z,18.12
2016-11-06T14:33:41.159Z,18.17
2016-11-06T14:34:06.729Z,18.19
2016-11-06T14:34:32.305Z,18.15
2016-11-06T14:34:57.882Z,18.19
2016-11-06T14:35:23.449Z,18.19
2016-11-06T14:35:49.041Z,18.19
2016-11-06T14:36:14.578Z,18.21
2016-11-06T14:36:40.172Z,18.22
2016-11-06T14:37:05.751Z,18.18
2016-11-06T14:37:31.369Z,18.15
2016-11-06T14:37:56.947Z,18.13
2016-11-06T14:38:22.517Z,18.17
2016-11-06T14:38:48.065Z,18.17
2016-11-06T14:39:13.627Z,18.13
2016-11-06T14:39:39.219Z,18.17
2016-11-06T14:40:04.765Z,18.18
2016-11-06T14:40:30.361Z,18.19
2016-11-06T14:40:55.962Z,18.13
2016-11-06T14:41:21.517Z,18.13
2016-11-06T14:41:47.081Z,18.19
2016-11-06T14:42:12.732Z,18.18
2016-11-06T14:42:38.390Z,18.13
2016-11-06T14:43:03.947Z,18.09
2016-11-06T14:43:29.512Z,18.15
2016-11-06T14:43:55.129Z,18.04
2016-11-06T14:44:20.714Z,18.17
2016-11-06T14:44:46.271Z,18.15
2016-11-06T14:45:11.852Z,18.1
2016-11-06T14:45:37.471Z,18.13
2016-11-06T14:46:03.016Z,18.1
2016-11-06T14:46:28.593Z,18.17
2016-11-06T14:46:54.149Z,18.09
2016-11-06T14:47:19.752Z,18.13
2016-11-06T14:47:45.329Z,18.13
2016-11-06T14:48:10.903Z,18.04
2016-11-06T14:48:36.444Z,18.12
2016-11-06T14:49:02.116Z,18.18
2016-11-06T14:49:27.771Z,18.12
2016-11-06T14:49:53.283Z,17.99
2016-11-06T14:50:18.854Z,18.03
2016-11-06T14:50:44.410Z,18.15
2016-11-06T14:51:09.990Z,18.15
2016-11-06T14:51:35.588Z,18.13
2016-11-06T14:52:01.160Z,18.04
2016-11-06T14:52:26.716Z,18.13
2016-11-06T14:52:52.263Z,18.07
2016-11-06T14:53:17.843Z,17.99
2016-11-06T14:53:43.398Z,18
2016-11-06T14:54:09.110Z,18.09
2016-11-06T14:54:34.678Z,18.1
2016-11-06T14:55:00.242Z,18.06
2016-11-06T14:55:25.858Z,18
2016-11-06T14:55:51.466Z,18.07
2016-11-06T14:56:17.022Z,18.02
2016-11-06T14:56:42.584Z,18.04
2016-11-06T14:57:08.158Z,18.06
2016-11-06T14:57:33.748Z,18.02
2016-11-06T14:57:59.307Z,18
2016-11-06T14:58:24.870Z,18.09
2016-11-06T14:58:50.451Z,17.97
2016-11-06T14:59:16.051Z,18.04
2016-11-06T14:59:41.645Z,18.07
2016-11-06T15:00:07.242Z,17.97
2016-11-06T15:00:32.809Z,18.02
2016-11-06T15:00:58.516Z,18.03
2016-11-06T15:01:24.082Z,18.15
2016-11-06T15:01:49.651Z,18.09
2016-11-06T15:02:15.312Z,18.03
2016-11-06T15:02:40.877Z,18.04
2016-11-06T15:03:06.441Z,18.03
2016-11-06T15:03:31.996Z,18.02
2016-11-06T15:03:57.556Z,18.03
2016-11-06T15:04:23.114Z,18.03
2016-11-06T15:04:48.701Z,18.03
2016-11-06T15:05:14.272Z,18.03
2016-11-06T15:05:39.878Z,18.02
2016-11-06T15:06:05.470Z,18.07
2016-11-06T15:06:31.048Z,18
2016-11-06T15:06:56.651Z,18
2016-11-06T15:07:22.286Z,17.99
2016-11-06T15:07:47.849Z,18.02
2016-11-06T15:08:13.431Z,18.06
2016-11-06T15:08:39.013Z,18.04
2016-11-06T15:09:04.619Z,18.02
2016-11-06T15:09:30.196Z,18.03
2016-11-06T15:09:55.788Z,18.03
2016-11-06T15:10:21.369Z,18.03
2016-11-06T15:10:46.939Z,18
2016-11-06T15:11:12.596Z,18.02
2016-11-06T15:11:38.255Z,17.99
2016-11-06T15:12:03.829Z,18.02
2016-11-06T15:12:29.407Z,18.04
2016-11-06T15:12:55.072Z,18.09
2016-11-06T15:13:20.683Z,17.95
2016-11-06T15:13:46.253Z,17.97
2016-11-06T15:14:11.813Z,18.03
2016-11-06T15:14:37.474Z,18.02
2016-11-06T15:15:03.029Z,18.02
2016-11-06T15:15:28.617Z,18
2016-11-06T15:15:54.155Z,17.99
2016-11-06T15:16:19.707Z,18
2016-11-06T15:16:45.281Z,17.95
2016-11-06T15:17:10.838Z,18.06
2016-11-06T15:17:36.399Z,18.04
2016-11-06T15:18:01.978Z,17.99
2016-11-06T15:18:27.563Z,17.94
2016-11-06T15:18:53.152Z,17.99
2016-11-06T15:19:18.724Z,17.94
2016-11-06T15:19:44.312Z,17.99
2016-11-06T15:20:09.877Z,17.95
2016-11-06T15:20:35.440Z,17.99
2016-11-06T15:21:01.025Z,17.94
2016-11-06T15:21:26.598Z,18
2016-11-06T15:21:52.245Z,18.02
2016-11-06T15:22:17.810Z,18
2016-11-06T15:22:43.361Z,17.95
2016-11-06T15:23:08.930Z,17.97
2016-11-06T15:23:34.504Z,17.95
2016-11-06T15:24:00.062Z,17.95
2016-11-06T15:24:25.626Z,17.95
2016-11-06T15:24:51.178Z,17.95
2016-11-06T15:25:16.755Z,17.95
2016-11-06T15:25:42.306Z,17.99
2016-11-06T15:26:07.881Z,17.91
2016-11-06T15:26:33.465Z,17.97
2016-11-06T15:26:59.009Z,17.95
2016-11-06T15:27:24.602Z,17.97
2016-11-06T15:27:50.192Z,17.92
2016-11-06T15:28:15.797Z,17.91
2016-11-06T15:28:41.368Z,17.91
2016-11-06T15:29:06.970Z,17.97
2016-11-06T15:29:32.541Z,17.97
2016-11-06T15:29:58.157Z,17.91
2016-11-06T15:30:23.722Z,18
2016-11-06T15:30:49.275Z,17.99
2016-11-06T15:31:14.845Z,17.95
2016-11-06T15:31:40.396Z,17.95
2016-11-06T15:32:05.969Z,17.91
2016-11-06T15:32:31.539Z,17.99
2016-11-06T15:32:57.096Z,17.97
2016-11-06T15:33:22.767Z,17.97
2016-11-06T15:33:48.541Z,17.89
2016-11-06T15:34:13.914Z,17.92
2016-11-06T15:34:39.511Z,17.97
2016-11-06T15:35:05.093Z,17.99
2016-11-06T15:35:30.658Z,17.95
2016-11-06T15:35:56.271Z,17.97
2016-11-06T15:36:21.845Z,17.97
2016-11-06T15:36:47.501Z,17.95
2016-11-06T15:37:55.904Z,17.92
2016-11-06T15:38:21.493Z,17.94
2016-11-06T15:38:47.099Z,17.94
2016-11-06T15:39:12.649Z,17.91
2016-11-06T15:39:38.204Z,17.91
2016-11-06T15:40:03.780Z,17.95
2016-11-06T15:40:29.362Z,17.91
2016-11-06T15:40:54.956Z,17.94
2016-11-06T15:41:20.573Z,17.95
2016-11-06T15:41:46.124Z,17.92
2016-11-06T15:42:11.794Z,17.89
2016-11-06T15:42:37.375Z,17.97
2016-11-06T15:43:02.932Z,18.02
2016-11-06T15:43:28.514Z,18
2016-11-06T15:43:54.212Z,17.95
2016-11-06T15:44:19.814Z,17.97
2016-11-06T15:44:45.381Z,17.95
2016-11-06T15:45:10.950Z,17.94
2016-11-06T15:45:36.607Z,17.91
2016-11-06T15:46:02.225Z,17.92
2016-11-06T15:46:27.835Z,17.92
2016-11-06T15:46:53.414Z,17.92
2016-11-06T15:47:18.976Z,17.97
2016-11-06T15:47:44.563Z,17.91
2016-11-06T15:48:10.173Z,17.97
2016-11-06T15:48:35.766Z,18
2016-11-06T15:49:01.334Z,17.94
2016-11-06T15:49:26.947Z,17.87
2016-11-06T15:49:52.507Z,17.92
2016-11-06T15:50:18.087Z,17.91
2016-11-06T15:50:43.678Z,17.94
2016-11-06T15:51:09.280Z,18
2016-11-06T15:51:34.854Z,17.94
2016-11-06T15:52:00.404Z,17.84
2016-11-06T15:52:25.999Z,17.89
2016-11-06T15:52:51.597Z,17.88
2016-11-06T15:53:17.245Z,17.99
2016-11-06T15:53:42.863Z,17.94
2016-11-06T15:54:08.458Z,17.95
2016-11-06T15:54:34.010Z,17.97
2016-11-06T15:54:59.623Z,17.88
2016-11-06T15:55:25.186Z,17.99
2016-11-06T15:55:50.768Z,17.85
2016-11-06T15:56:16.455Z,17.89
2016-11-06T15:56:42.020Z,17.94
2016-11-06T15:57:07.592Z,18
2016-11-06T15:57:33.164Z,17.94
2016-11-06T15:57:58.764Z,17.88
2016-11-06T15:58:24.353Z,17.92
2016-11-06T15:58:50.034Z,17.99
2016-11-06T15:59:15.602Z,17.87
2016-11-06T15:59:41.161Z,17.88
2016-11-06T16:00:06.738Z,17.94
2016-11-06T16:00:32.317Z,17.92
2016-11-06T16:00:57.867Z,17.88
2016-11-06T16:01:23.430Z,18
2016-11-06T16:01:48.982Z,17.95
2016-11-06T16:02:14.558Z,17.85
2016-11-06T16:03:22.903Z,17.97
2016-11-06T16:03:48.483Z,17.94
2016-11-06T16:05:55.903Z,17.97
2016-11-06T16:06:21.478Z,17.89
2016-11-06T16:06:47.027Z,17.91
2016-11-06T16:07:12.568Z,17.97
2016-11-06T16:07:38.139Z,17.92
2016-11-06T16:08:03.697Z,18.02
2016-11-06T16:08:29.253Z,17.89
2016-11-06T16:08:54.888Z,17.97
2016-11-06T16:09:20.476Z,17.94
2016-11-06T16:09:46.068Z,17.95
2016-11-06T16:10:11.639Z,17.92
2016-11-06T16:10:37.203Z,17.87
2016-11-06T16:11:02.787Z,17.95
2016-11-06T16:11:28.338Z,17.84
2016-11-06T16:11:53.898Z,17.87
2016-11-06T16:12:19.499Z,17.94
2016-11-06T16:12:45.068Z,17.91
2016-11-06T16:13:10.618Z,17.88
2016-11-06T16:13:36.207Z,18
2016-11-06T16:14:01.781Z,17.94
2016-11-06T16:14:27.343Z,17.87
2016-11-06T16:14:52.939Z,17.89
2016-11-06T16:15:18.496Z,17.99
2016-11-06T16:15:44.064Z,17.91
2016-11-06T16:16:09.632Z,17.88
2016-11-06T16:16:35.239Z,18
2016-11-06T16:17:00.801Z,17.85
2016-11-06T16:18:09.154Z,17.89
2016-11-06T16:18:34.778Z,17.85
2016-11-06T16:19:00.430Z,18
2016-11-06T16:19:26.026Z,17.91
2016-11-06T16:19:51.599Z,17.91
2016-11-06T16:20:17.157Z,17.92
2016-11-06T16:20:42.747Z,17.84
2016-11-06T16:21:08.299Z,17.91
2016-11-06T16:21:33.916Z,17.88
2016-11-06T16:21:59.458Z,17.87
2016-11-06T16:22:25.010Z,17.84
2016-11-06T16:22:50.581Z,17.89
2016-11-06T16:23:16.250Z,17.89
2016-11-06T16:24:04.134Z,17.94
2016-11-06T16:24:29.699Z,17.89
2016-11-06T16:24:55.269Z,17.89
2016-11-06T16:25:20.890Z,17.95
2016-11-06T16:25:46.465Z,17.94
2016-11-06T16:26:12.010Z,17.95
2016-11-06T16:26:37.580Z,17.94
2016-11-06T16:27:03.160Z,17.95
2016-11-06T16:27:28.759Z,17.95
2016-11-06T16:27:54.336Z,17.89
2016-11-06T16:28:19.906Z,17.85
2016-11-06T16:28:45.473Z,17.88
2016-11-06T16:29:11.171Z,17.99
2016-11-06T16:29:36.752Z,17.85
2016-11-06T16:30:02.353Z,17.91
2016-11-06T16:30:27.896Z,17.85
2016-11-06T16:30:53.553Z,17.88
2016-11-06T16:31:19.164Z,17.91
2016-11-06T16:31:44.730Z,17.87
2016-11-06T16:32:10.293Z,17.91
2016-11-06T16:32:35.858Z,17.95
2016-11-06T16:33:01.445Z,17.85
2016-11-06T16:33:27.009Z,17.87
2016-11-06T16:33:52.583Z,17.92
2016-11-06T16:34:18.173Z,17.89
2016-11-06T16:34:43.753Z,17.85
2016-11-06T16:35:09.299Z,17.87
2016-11-06T16:35:34.882Z,17.91
2016-11-06T16:36:00.458Z,17.89
2016-11-06T16:36:26.028Z,17.88
2016-11-06T16:36:51.594Z,17.88
2016-11-06T16:37:17.237Z,17.85
2016-11-06T16:37:42.816Z,17.91
2016-11-06T16:38:08.377Z,17.92
2016-11-06T16:38:33.957Z,17.92
2016-11-06T16:38:59.532Z,17.91
2016-11-06T16:39:25.088Z,17.85
2016-11-06T16:39:50.648Z,17.87
2016-11-06T16:40:16.210Z,17.84
2016-11-06T16:40:41.898Z,17.85
2016-11-06T16:41:07.505Z,17.85
2016-11-06T16:41:33.067Z,17.87
2016-11-06T16:41:58.640Z,17.87
2016-11-06T16:42:24.212Z,17.82
2016-11-06T16:42:49.788Z,17.82